createdAt,value
2018-09-01T00:01:10.774Z,100.00
2018-09-01T00:04:13.025Z,100.00
2018-09-01T00:07:15.260Z,100.00
2018-09-01T00:10:17.605Z,100.00
2018-09-01T00:13:19.796Z,100.00
2018-09-01T00:16:22.029Z,100.00
2018-09-01T00:19:24.208Z,100.00
2018-09-01T00:22:26.437Z,100.00
2018-09-01T00:25:28.618Z,100.00
2018-09-01T00:28:30.860Z,100.00
2018-09-01T00:31:33.028Z,100.00
2018-09-01T00:34:35.416Z,100.00
2018-09-01T00:37:43.234Z,100.00
2018-09-01T00:40:45.451Z,100.00
2018-09-01T00:43:47.654Z,100.00
2018-09-01T00:46:49.887Z,100.00
2018-09-01T00:49:52.117Z,100.00
2018-09-01T00:52:54.435Z,100.00
2018-09-01T00:55:56.689Z,100.00
2018-09-01T00:58:59.199Z,100.00
2018-09-01T01:02:01.516Z,100.00
2018-09-01T01:05:03.777Z,100.00
2018-09-01T01:08:06.152Z,100.00
2018-09-01T01:11:08.439Z,100.00
2018-09-01T01:14:10.737Z,100.00
2018-09-01T01:17:13.017Z,100.00
2018-09-01T01:20:15.609Z,100.00
2018-09-01T01:23:19.107Z,100.00
2018-09-01T01:26:21.389Z,100.00
2018-09-01T01:29:24.796Z,100.00
2018-09-01T01:32:26.971Z,100.00
2018-09-01T01:35:29.231Z,100.00
2018-09-01T01:38:32.474Z,100.00
2018-09-01T01:41:34.644Z,100.00
2018-09-01T01:44:36.892Z,100.00
2018-09-01T01:47:40.606Z,100.00
2018-09-01T01:50:42.913Z,100.00
2018-09-01T01:53:45.181Z,100.00
2018-09-01T01:56:47.444Z,100.00
2018-09-01T01:59:49.736Z,100.00
2018-09-01T02:02:52.013Z,100.00
2018-09-01T02:05:54.264Z,100.00
2018-09-01T02:08:56.857Z,100.00
2018-09-01T02:11:59.121Z,100.00
2018-09-01T02:15:01.376Z,100.00
2018-09-01T02:18:03.627Z,100.00
2018-09-01T02:21:05.908Z,100.00
2018-09-01T02:24:08.165Z,100.00
2018-09-01T02:27:10.361Z,100.00
2018-09-01T02:30:12.647Z,100.00
2018-09-01T02:33:14.899Z,100.00
2018-09-01T02:36:17.159Z,100.00
2018-09-01T02:39:19.578Z,100.00
2018-09-01T02:42:21.800Z,100.00
2018-09-01T02:45:23.976Z,100.00
2018-09-01T02:48:26.237Z,100.00
2018-09-01T02:51:28.417Z,100.00
2018-09-01T02:54:30.700Z,100.00
2018-09-01T02:57:32.968Z,100.00
2018-09-01T03:00:35.759Z,100.00
2018-09-01T03:03:38.020Z,100.00
2018-09-01T03:06:48.529Z,100.00
2018-09-01T03:09:50.775Z,100.00
2018-09-01T03:12:52.943Z,100.00
2018-09-01T03:15:55.252Z,100.00
2018-09-01T03:18:57.532Z,100.00
2018-09-01T03:21:59.849Z,100.00
2018-09-01T03:25:02.353Z,100.00
2018-09-01T03:28:04.846Z,100.00
2018-09-01T03:31:07.153Z,100.00
2018-09-01T03:34:09.456Z,100.00
2018-09-01T03:37:11.644Z,100.00
2018-09-01T03:40:13.893Z,100.00
2018-09-01T03:43:16.101Z,100.00
2018-09-01T03:46:18.473Z,100.00
2018-09-01T03:49:20.878Z,100.00
2018-09-01T03:52:23.061Z,100.00
2018-09-01T03:55:25.337Z,100.00
2018-09-01T03:58:27.657Z,100.00
2018-09-01T04:01:30.025Z,100.00
2018-09-01T04:04:32.269Z,100.00
2018-09-01T04:07:34.620Z,100.00
2018-09-01T04:10:36.858Z,100.00
2018-09-01T04:13:39.024Z,100.00
2018-09-01T04:16:41.243Z,100.00
2018-09-01T04:19:43.583Z,100.00
2018-09-01T04:22:46.062Z,100.00
2018-09-01T04:25:48.296Z,100.00
2018-09-01T04:28:50.584Z,100.00
2018-09-01T04:31:52.972Z,100.00
2018-09-01T04:34:55.090Z,100.00
2018-09-01T04:37:57.384Z,100.00
2018-09-01T04:40:59.681Z,100.00
2018-09-01T04:44:01.885Z,100.00
2018-09-01T04:47:04.253Z,100.00
2018-09-01T04:50:06.484Z,100.00
2018-09-01T04:53:08.749Z,100.00
2018-09-01T04:56:11.007Z,100.00
2018-09-01T04:59:14.268Z,100.00
2018-09-01T05:02:16.565Z,100.00
2018-09-01T05:05:18.790Z,100.00
2018-09-01T05:08:20.982Z,100.00
2018-09-01T05:11:23.259Z,100.00
2018-09-01T05:14:25.558Z,100.00
2018-09-01T05:17:28.017Z,100.00
2018-09-01T05:20:30.297Z,100.00
2018-09-01T05:23:32.550Z,100.00
2018-09-01T05:26:34.842Z,100.00
2018-09-01T05:29:37.102Z,100.00
2018-09-01T05:32:39.374Z,87.58
2018-09-01T05:35:41.733Z,80.42
2018-09-01T05:38:43.889Z,74.62
2018-09-01T05:41:46.074Z,72.29
2018-09-01T05:44:48.345Z,72.44
2018-09-01T05:47:50.973Z,72.93
2018-09-01T05:50:53.281Z,70.80
2018-09-01T05:53:55.428Z,67.82
2018-09-01T05:56:57.624Z,67.14
2018-09-01T05:59:59.796Z,64.96
2018-09-01T06:03:02.100Z,64.08
2018-09-01T06:06:04.479Z,63.29
2018-09-01T06:09:07.579Z,65.82
2018-09-01T06:12:09.882Z,62.84
2018-09-01T06:15:12.029Z,61.16
2018-09-01T06:18:14.294Z,60.76
2018-09-01T06:21:16.475Z,61.43
2018-09-01T06:24:18.724Z,57.44
2018-09-01T06:27:22.657Z,57.59
2018-09-01T06:30:29.295Z,56.88
2018-09-01T06:33:31.533Z,59.56
2018-09-01T06:36:33.839Z,59.00
2018-09-01T06:39:36.155Z,61.13
2018-09-01T06:42:38.381Z,60.20
2018-09-01T06:45:40.651Z,61.72
2018-09-01T06:48:42.796Z,59.96
2018-09-01T06:51:45.145Z,60.36
2018-09-01T06:54:47.255Z,60.24
2018-09-01T06:57:49.412Z,60.71
2018-09-01T07:00:51.549Z,59.61
2018-09-01T07:03:53.781Z,59.99
2018-09-01T07:06:56.188Z,60.68
2018-09-01T07:09:58.973Z,57.55
2018-09-01T07:13:01.215Z,59.83
2018-09-01T07:16:03.557Z,58.17
2018-09-01T07:19:05.760Z,57.21
2018-09-01T07:22:08.516Z,53.65
2018-09-01T07:25:11.764Z,56.35
2018-09-01T07:28:13.906Z,55.65
2018-09-01T07:31:20.422Z,56.83
2018-09-01T07:34:22.569Z,59.04
2018-09-01T07:37:24.872Z,58.83
2018-09-01T07:40:27.108Z,60.88
2018-09-01T07:43:29.326Z,62.81
2018-09-01T07:46:31.578Z,61.02
2018-09-01T07:49:33.779Z,62.66
2018-09-01T07:52:36.228Z,64.58
2018-09-01T07:55:38.421Z,65.00
2018-09-01T07:58:40.709Z,66.76
2018-09-01T08:01:42.970Z,66.24
2018-09-01T08:04:45.336Z,65.96
2018-09-01T08:07:47.571Z,66.85
2018-09-01T08:10:50.007Z,67.86
2018-09-01T08:17:11.399Z,67.60
2018-09-01T08:20:13.599Z,66.27
2018-09-01T08:23:19.524Z,67.55
2018-09-01T08:26:22.189Z,66.77
2018-09-01T08:29:24.775Z,67.80
2018-09-01T08:32:27.003Z,68.29
2018-09-01T08:35:29.268Z,68.79
2018-09-01T08:38:32.756Z,68.30
2018-09-01T08:41:35.150Z,66.80
2018-09-01T08:44:37.448Z,68.16
2018-09-01T08:47:39.763Z,67.68
2018-09-01T08:50:42.057Z,66.51
2018-09-01T08:53:44.315Z,66.67
2018-09-01T08:56:46.484Z,65.98
2018-09-01T08:59:48.663Z,66.40
2018-09-01T09:02:50.956Z,67.35
2018-09-01T09:05:54.327Z,66.96
2018-09-01T09:08:56.653Z,66.00
2018-09-01T09:11:58.855Z,65.36
2018-09-01T09:15:01.145Z,66.61
2018-09-01T09:18:03.464Z,66.90
2018-09-01T09:21:05.701Z,66.49
2018-09-01T09:24:08.048Z,64.18
2018-09-01T09:27:10.245Z,63.31
2018-09-01T09:30:12.755Z,63.57
2018-09-01T09:33:14.950Z,64.25
2018-09-01T09:36:17.203Z,64.92
2018-09-01T09:39:20.224Z,61.62
2018-09-01T09:42:22.459Z,59.45
2018-09-01T09:45:24.717Z,55.99
2018-09-01T09:48:27.043Z,56.33
2018-09-01T09:51:29.380Z,57.24
2018-09-01T09:54:31.942Z,58.62
2018-09-01T09:57:34.160Z,56.03
2018-09-01T10:00:42.048Z,55.06
2018-09-01T10:03:44.291Z,55.15
2018-09-01T10:06:46.596Z,54.62
2018-09-01T10:09:48.969Z,54.99
2018-09-01T10:12:51.196Z,55.00
2018-09-01T10:15:53.561Z,54.93
2018-09-01T10:18:56.088Z,52.52
2018-09-01T10:22:05.333Z,52.92
2018-09-01T10:25:07.620Z,54.09
2018-09-01T10:28:09.787Z,53.62
2018-09-01T10:31:12.067Z,53.50
2018-09-01T10:34:14.276Z,55.09
2018-09-01T10:37:16.572Z,52.73
2018-09-01T10:40:18.987Z,53.23
2018-09-01T10:43:21.404Z,52.72
2018-09-01T10:46:23.704Z,52.57
2018-09-01T10:49:26.195Z,50.31
2018-09-01T10:52:28.384Z,50.39
2018-09-01T10:55:30.654Z,49.26
2018-09-01T10:58:33.015Z,50.56
2018-09-01T11:01:35.287Z,49.25
2018-09-01T11:04:37.477Z,48.57
2018-09-01T11:07:39.622Z,49.00
2018-09-01T11:10:41.913Z,46.93
2018-09-01T11:13:44.178Z,46.73
2018-09-01T11:16:46.618Z,46.55
2018-09-01T11:19:49.080Z,44.28
2018-09-01T11:22:51.583Z,46.45
2018-09-01T11:25:53.758Z,47.62
2018-09-01T11:28:55.953Z,47.95
2018-09-01T11:31:58.282Z,46.79
2018-09-01T11:35:00.466Z,43.66
2018-09-01T11:38:02.731Z,44.79
2018-09-01T11:41:05.274Z,44.07
2018-09-01T11:44:07.511Z,43.62
2018-09-01T11:47:09.697Z,43.67
2018-09-01T11:50:12.041Z,43.16
2018-09-01T11:53:14.339Z,43.60
2018-09-01T11:56:16.774Z,42.81
2018-09-01T11:59:19.134Z,41.71
2018-09-01T12:02:21.470Z,42.34
2018-09-01T12:05:23.652Z,41.12
2018-09-01T12:08:28.191Z,40.68
2018-09-01T12:11:30.508Z,40.64
2018-09-01T12:14:32.894Z,41.57
2018-09-01T12:17:35.227Z,42.29
2018-09-01T12:20:37.521Z,43.58
2018-09-01T12:23:39.813Z,43.69
2018-09-01T12:26:42.150Z,45.39
2018-09-01T12:29:45.422Z,46.23
2018-09-01T12:32:47.659Z,46.49
2018-09-01T12:35:49.997Z,47.49
2018-09-01T12:38:52.208Z,47.50
2018-09-01T12:41:54.560Z,47.06
2018-09-01T12:44:56.946Z,44.76
2018-09-01T12:47:59.577Z,45.43
2018-09-01T12:51:01.959Z,45.77
2018-09-01T12:54:04.235Z,44.67
2018-09-01T12:57:06.615Z,43.60
2018-09-01T13:00:09.015Z,42.69
2018-09-01T13:03:11.274Z,43.16
2018-09-01T13:06:13.460Z,42.99
2018-09-01T13:09:15.844Z,41.42
2018-09-01T13:12:18.181Z,43.15
2018-09-01T13:15:20.442Z,43.34
2018-09-01T13:18:22.689Z,43.89
2018-09-01T13:21:24.942Z,43.55
2018-09-01T13:24:27.261Z,41.60
2018-09-01T13:27:29.809Z,41.12
2018-09-01T13:30:32.251Z,40.49
2018-09-01T13:33:34.793Z,42.52
2018-09-01T13:36:36.993Z,42.83
2018-09-01T13:39:39.159Z,43.63
2018-09-01T13:42:41.361Z,43.53
2018-09-01T13:45:43.611Z,42.89
2018-09-01T13:48:46.995Z,42.98
2018-09-01T13:51:49.224Z,41.38
2018-09-01T13:54:52.471Z,40.98
2018-09-01T13:57:54.824Z,41.96
2018-09-01T14:00:58.089Z,40.44
2018-09-01T14:04:00.326Z,40.55
2018-09-01T14:07:02.670Z,39.71
2018-09-01T14:10:05.578Z,39.98
2018-09-01T14:13:07.893Z,40.02
2018-09-01T14:16:10.263Z,40.40
2018-09-01T14:19:12.592Z,39.35
2018-09-01T14:22:15.935Z,39.84
2018-09-01T14:25:18.215Z,41.42
2018-09-01T14:28:20.771Z,38.75
2018-09-01T14:31:22.957Z,38.06
2018-09-01T14:34:25.270Z,37.70
2018-09-01T14:37:27.524Z,36.22
2018-09-01T14:40:29.708Z,36.63
2018-09-01T14:43:31.958Z,37.96
2018-09-01T14:46:34.307Z,38.92
2018-09-01T14:49:36.646Z,38.94
2018-09-01T14:52:40.038Z,38.98
2018-09-01T14:56:13.172Z,40.03
2018-09-01T14:59:15.465Z,40.24
2018-09-01T15:02:18.434Z,40.81
2018-09-01T15:05:20.869Z,40.88
2018-09-01T15:08:23.122Z,41.22
2018-09-01T15:11:25.516Z,40.62
2018-09-01T15:14:27.720Z,38.95
2018-09-01T15:17:29.947Z,38.80
2018-09-01T15:20:32.302Z,38.75
2018-09-01T15:23:34.620Z,38.11
2018-09-01T15:26:36.895Z,38.76
2018-09-01T15:29:39.094Z,38.06
2018-09-01T15:32:41.466Z,39.65
2018-09-01T15:35:43.655Z,38.97
2018-09-01T15:38:46.924Z,38.61
2018-09-01T15:41:49.159Z,38.58
2018-09-01T15:44:51.552Z,37.93
2018-09-01T15:47:53.866Z,38.60
2018-09-01T15:50:56.210Z,38.79
2018-09-01T15:53:58.634Z,38.54
2018-09-01T15:57:01.116Z,39.96
2018-09-01T16:00:03.408Z,41.03
2018-09-01T16:03:05.755Z,39.36
2018-09-01T16:06:08.005Z,39.70
2018-09-01T16:09:10.424Z,40.26
2018-09-01T16:12:12.812Z,41.70
2018-09-01T16:15:15.045Z,42.56
2018-09-01T16:18:17.329Z,42.63
2018-09-01T16:21:19.733Z,40.91
2018-09-01T16:24:21.953Z,41.16
2018-09-01T16:27:24.187Z,41.11
2018-09-01T16:30:26.629Z,42.16
2018-09-01T16:33:29.229Z,43.59
2018-09-01T16:36:31.547Z,43.91
2018-09-01T16:39:33.853Z,44.79
2018-09-01T16:42:36.090Z,45.33
2018-09-01T16:45:38.345Z,43.38
2018-09-01T16:48:40.748Z,43.29
2018-09-01T16:51:42.944Z,42.43
2018-09-01T16:54:45.343Z,42.50
2018-09-01T16:57:47.784Z,42.49
2018-09-01T17:00:55.883Z,41.73
2018-09-01T17:03:58.143Z,41.31
2018-09-01T17:07:00.276Z,41.58
2018-09-01T17:10:03.677Z,41.10
2018-09-01T17:13:05.910Z,42.29
2018-09-01T17:16:08.208Z,42.44
2018-09-01T17:19:10.376Z,43.52
2018-09-01T17:22:12.767Z,42.63
2018-09-01T17:25:14.981Z,43.63
2018-09-01T17:28:17.296Z,44.00
2018-09-01T17:31:19.592Z,44.36
2018-09-01T17:34:21.922Z,44.84
2018-09-01T17:37:24.135Z,45.28
2018-09-01T17:40:26.347Z,45.19
2018-09-01T17:43:28.600Z,46.25
2018-09-01T17:46:30.906Z,45.81
2018-09-01T17:49:33.224Z,47.10
2018-09-01T17:52:35.445Z,48.70
2018-09-01T17:55:37.651Z,48.67
2018-09-01T17:58:39.944Z,50.88
2018-09-01T18:01:42.201Z,52.40
2018-09-01T18:04:44.492Z,54.06
2018-09-01T18:07:51.329Z,55.78
2018-09-01T18:10:53.777Z,58.32
2018-09-01T18:13:56.112Z,59.93
2018-09-01T18:16:58.446Z,60.88
2018-09-01T18:20:00.951Z,62.44
2018-09-01T18:23:03.719Z,63.55
2018-09-01T18:26:06.217Z,64.01
2018-09-01T18:29:08.715Z,65.27
2018-09-01T18:32:10.954Z,65.86
2018-09-01T18:35:13.313Z,65.80
2018-09-01T18:38:18.764Z,66.84
2018-09-01T18:41:21.173Z,67.10
2018-09-01T18:44:23.594Z,68.16
2018-09-01T18:47:25.843Z,69.59
2018-09-01T18:50:28.074Z,69.98
2018-09-01T18:53:30.282Z,69.92
2018-09-01T18:56:32.595Z,70.38
2018-09-01T18:59:34.968Z,70.37
2018-09-01T19:02:37.231Z,71.13
2018-09-01T19:05:39.508Z,70.80
2018-09-01T19:08:42.186Z,71.30
2018-09-01T19:11:44.337Z,72.25
2018-09-01T19:14:46.537Z,72.55
2018-09-01T19:17:48.788Z,72.75
2018-09-01T19:20:51.025Z,73.86
2018-09-01T19:23:53.375Z,73.79
2018-09-01T19:26:55.704Z,74.56
2018-09-01T19:29:57.939Z,74.56
2018-09-01T19:33:00.211Z,75.67
2018-09-01T19:36:02.422Z,76.17
2018-09-01T19:39:07.399Z,78.23
2018-09-01T19:42:09.745Z,79.34
2018-09-01T19:45:12.142Z,79.32
2018-09-01T19:48:14.377Z,79.55
2018-09-01T19:51:16.647Z,79.69
2018-09-01T19:54:19.930Z,81.59
2018-09-01T19:57:22.142Z,81.67
2018-09-01T20:00:24.433Z,82.77
2018-09-01T20:03:26.693Z,83.73
2018-09-01T20:06:29.011Z,85.09
2018-09-01T20:09:31.397Z,85.38
2018-09-01T20:12:33.817Z,84.81
2018-09-01T20:15:36.160Z,85.65
2018-09-01T20:18:38.542Z,86.83
2018-09-01T20:21:40.864Z,87.91
2018-09-01T20:24:43.271Z,86.73
2018-09-01T20:27:45.538Z,85.67
2018-09-01T20:30:47.753Z,86.49
2018-09-01T20:33:50.119Z,87.00
2018-09-01T20:36:52.540Z,87.87
2018-09-01T20:39:54.911Z,86.62
2018-09-01T20:42:57.293Z,87.35
2018-09-01T20:46:00.675Z,87.92
2018-09-01T20:49:02.900Z,88.60
2018-09-01T20:52:05.275Z,88.03
2018-09-01T20:55:07.695Z,87.97
2018-09-01T20:58:10.673Z,88.83
2018-09-01T21:01:12.992Z,88.72
2018-09-01T21:04:15.136Z,90.20
2018-09-01T21:07:17.472Z,90.52
2018-09-01T21:10:19.743Z,91.11
2018-09-01T21:13:21.872Z,91.18
2018-09-01T21:16:24.137Z,91.49
2018-09-01T21:19:26.338Z,89.85
2018-09-01T21:22:28.560Z,90.96
2018-09-01T21:25:30.841Z,91.55
2018-09-01T21:28:33.185Z,91.40
2018-09-01T21:31:36.492Z,92.23
2018-09-01T21:34:41.905Z,92.76
2018-09-01T21:37:45.247Z,92.55
2018-09-01T21:40:48.448Z,93.11
2018-09-01T21:43:50.796Z,93.71
2018-09-01T21:46:53.040Z,93.77
2018-09-01T21:49:55.404Z,93.54
2018-09-01T21:52:59.748Z,94.75
2018-09-01T21:56:02.112Z,95.44
2018-09-01T21:59:04.365Z,94.90
2018-09-01T22:02:12.137Z,95.00
2018-09-01T22:05:18.127Z,94.64
2018-09-01T22:08:21.311Z,94.00
2018-09-01T22:11:23.593Z,95.11
2018-09-01T22:14:25.958Z,94.63
2018-09-01T22:17:28.129Z,95.24
2018-09-01T22:20:30.481Z,96.00
2018-09-01T22:23:32.768Z,95.60
2018-09-01T22:26:34.973Z,95.76
2018-09-01T22:29:37.172Z,96.62
2018-09-01T22:32:39.484Z,96.43
2018-09-01T22:35:41.691Z,96.74
2018-09-01T22:38:43.948Z,98.42
2018-09-01T22:41:47.208Z,98.56
2018-09-01T22:44:49.395Z,98.42
2018-09-01T22:47:51.751Z,98.23
2018-09-01T22:50:54.959Z,98.80
2018-09-01T22:53:57.156Z,97.83
2018-09-01T22:56:59.350Z,98.53
2018-09-01T23:00:01.615Z,97.99
2018-09-01T23:03:03.941Z,98.12
2018-09-01T23:06:06.249Z,97.74
2018-09-01T23:09:08.800Z,97.32
2018-09-01T23:12:11.099Z,97.81
2018-09-01T23:15:13.322Z,98.13
2018-09-01T23:18:15.493Z,98.19
2018-09-01T23:21:17.659Z,98.91
2018-09-01T23:24:19.839Z,98.38
2018-09-01T23:27:25.406Z,99.77
2018-09-01T23:30:27.724Z,100.00
2018-09-01T23:33:30.025Z,98.63
2018-09-01T23:36:32.302Z,99.55
2018-09-01T23:39:34.596Z,100.00
2018-09-01T23:42:36.872Z,100.00
2018-09-01T23:45:39.246Z,100.00
2018-09-01T23:48:41.477Z,100.00
2018-09-01T23:51:43.659Z,100.00
2018-09-01T23:54:45.933Z,100.00
2018-09-01T23:57:48.112Z,99.93
